createdAt,value
2022-08-29T00:01:25.972Z,-23743.28
2022-08-29T00:03:29.127Z,-23740.63
2022-08-29T00:05:35.080Z,-23738.41
2022-08-29T00:07:38.870Z,-23738.91
2022-08-29T00:09:41.569Z,-23736.38
2022-08-29T00:11:46.439Z,-23736.22
2022-08-29T00:13:49.908Z,-23737.00
2022-08-29T00:15:52.580Z,-23733.84
2022-08-29T00:17:55.278Z,-23732.59
2022-08-29T00:19:57.945Z,-23731.34
2022-08-29T00:22:00.655Z,-23733.22
2022-08-29T00:24:03.758Z,-23731.97
2022-08-29T00:26:06.685Z,-23732.91
2022-08-29T00:28:10.836Z,-23731.81
2022-08-29T00:30:15.225Z,-23730.41
2022-08-29T00:32:17.867Z,-23726.63
2022-08-29T00:34:20.786Z,-23728.19
2022-08-29T00:36:23.562Z,-23725.38
2022-08-29T00:38:27.999Z,-23724.72
2022-08-29T00:40:34.542Z,-23725.69
2022-08-29T00:42:37.324Z,-23724.09
2022-08-29T00:44:41.459Z,-23723.63
2022-08-29T00:46:49.336Z,-23716.88
2022-08-29T00:48:56.916Z,-23715.91
2022-08-29T00:51:02.972Z,-23709.63
2022-08-29T00:53:09.515Z,-23711.19
2022-08-29T00:55:20.249Z,-23714.50
2022-08-29T00:57:24.639Z,-23712.78
2022-08-29T00:59:32.688Z,-23713.56
2022-08-29T01:01:36.998Z,-23711.81
2022-08-29T01:03:42.996Z,-23709.00
2022-08-29T01:05:46.208Z,-23707.72
2022-08-29T01:07:51.875Z,-23708.69
2022-08-29T01:09:55.304Z,-23711.19
2022-08-29T01:12:15.574Z,-23711.50
2022-08-29T01:14:19.833Z,-23710.88
2022-08-29T01:16:24.277Z,-23709.47
2022-08-29T01:18:31.375Z,-23708.06
2022-08-29T01:20:41.377Z,-23704.75
2022-08-29T01:23:01.787Z,-23705.53
2022-08-29T01:25:09.941Z,-23704.59
2022-08-29T01:27:15.201Z,-23706.31
2022-08-29T01:29:18.490Z,-23706.78
2022-08-29T01:31:37.744Z,-23706.00
2022-08-29T01:33:48.467Z,-23705.84
2022-08-29T01:35:52.899Z,-23701.75
2022-08-29T01:37:56.154Z,-23701.75
2022-08-29T01:39:59.017Z,-23700.50
2022-08-29T01:42:05.477Z,-23696.09
2022-08-29T01:44:11.202Z,-23691.06
2022-08-29T01:46:18.423Z,-23695.78
2022-08-29T01:48:21.652Z,-23697.34
2022-08-29T01:50:24.332Z,-23696.09
2022-08-29T01:52:27.000Z,-23694.66
2022-08-29T01:54:30.355Z,-23698.59
2022-08-29T01:56:36.271Z,-23698.28
2022-08-29T01:58:40.332Z,-23696.41
2022-08-29T02:00:43.452Z,-23691.69
2022-08-29T02:02:46.187Z,-23689.78
2022-08-29T02:04:49.995Z,-23691.84
2022-08-29T02:06:52.769Z,-23689.63
2022-08-29T02:08:55.840Z,-23690.09
2022-08-29T02:10:59.724Z,-23690.88
2022-08-29T02:13:02.403Z,-23686.94
2022-08-29T02:15:08.444Z,-23685.22
2022-08-29T02:17:11.261Z,-23685.53
2022-08-29T02:19:14.026Z,-23684.75
2022-08-29T02:21:19.682Z,-23684.25
2022-08-29T02:23:30.982Z,-23683.47
2022-08-29T02:25:43.543Z,-23683.31
2022-08-29T02:27:46.245Z,-23681.59
2022-08-29T02:29:48.987Z,-23684.75
2022-08-29T02:31:54.925Z,-23684.13
2022-08-29T02:33:57.956Z,-23681.59
2022-08-29T02:36:03.369Z,-23678.28
2022-08-29T02:38:07.562Z,-23677.19
2022-08-29T02:40:11.207Z,-23676.56
2022-08-29T02:42:13.874Z,-23675.59
2022-08-29T02:44:16.543Z,-23674.34
2022-08-29T02:46:21.307Z,-23674.34
2022-08-29T02:48:26.159Z,-23673.88
2022-08-29T02:50:29.550Z,-23673.72
2022-08-29T02:52:37.127Z,-23679.22
2022-08-29T02:54:40.015Z,-23681.59
2022-08-29T02:56:42.718Z,-23680.78
2022-08-29T02:58:45.398Z,-23676.22
2022-08-29T03:00:48.143Z,-23674.03
2022-08-29T03:02:50.980Z,-23673.09
2022-08-29T03:04:55.016Z,-23673.72
2022-08-29T03:06:57.836Z,-23674.66
2022-08-29T03:09:00.688Z,-23675.59
2022-08-29T03:11:03.637Z,-23678.44
2022-08-29T03:13:06.850Z,-23678.13
2022-08-29T03:15:10.612Z,-23674.97
2022-08-29T03:17:13.362Z,-23669.63
2022-08-29T03:19:16.133Z,-23670.09
2022-08-29T03:21:22.896Z,-23671.19
2022-08-29T03:23:25.589Z,-23674.66
2022-08-29T03:25:28.244Z,-23674.97
2022-08-29T03:27:31.565Z,-23672.13
2022-08-29T03:29:35.788Z,-23668.97
2022-08-29T03:31:38.497Z,-23666.78
2022-08-29T03:33:41.838Z,-23664.88
2022-08-29T03:35:44.522Z,-23668.03
2022-08-29T03:37:48.720Z,-23669.78
2022-08-29T03:39:51.398Z,-23671.19
2022-08-29T03:41:54.488Z,-23672.13
2022-08-29T03:43:58.806Z,-23670.25
2022-08-29T03:46:01.460Z,-23672.75
2022-08-29T03:48:04.754Z,-23673.09
2022-08-29T03:50:08.354Z,-23672.91
2022-08-29T03:52:11.421Z,-23670.56
2022-08-29T03:54:15.479Z,-23670.25
2022-08-29T03:56:18.822Z,-23671.81
2022-08-29T03:58:21.842Z,-23667.88
2022-08-29T04:00:24.938Z,-23669.63
2022-08-29T04:02:27.760Z,-23668.03
2022-08-29T04:04:48.029Z,-23666.16
2022-08-29T04:06:51.118Z,-23663.63
2022-08-29T04:08:53.860Z,-23666.47
2022-08-29T04:10:58.027Z,-23667.09
2022-08-29T04:13:01.514Z,-23668.34
2022-08-29T04:15:05.789Z,-23669.28
2022-08-29T04:17:10.177Z,-23670.56
2022-08-29T04:19:12.830Z,-23669.94
2022-08-29T04:21:16.447Z,-23667.72
2022-08-29T04:23:19.122Z,-23664.41
2022-08-29T04:25:23.571Z,-23660.78
2022-08-29T04:27:27.607Z,-23657.16
2022-08-29T04:29:30.271Z,-23657.94
2022-08-29T04:31:33.150Z,-23661.09
2022-08-29T04:33:35.860Z,-23659.22
2022-08-29T04:35:40.029Z,-23657.31
2022-08-29T04:37:43.971Z,-23654.78
2022-08-29T04:39:46.613Z,-23656.06
2022-08-29T04:41:49.273Z,-23654.16
2022-08-29T04:43:53.473Z,-23648.31
2022-08-29T04:45:56.414Z,-23645.97
2022-08-29T04:48:03.059Z,-23651.47
2022-08-29T04:50:07.740Z,-23651.63
2022-08-29T04:52:10.796Z,-23650.38
2022-08-29T04:54:13.525Z,-23647.06
2022-08-29T04:56:16.491Z,-23647.84
2022-08-29T04:58:19.166Z,-23651.31
2022-08-29T05:00:27.501Z,-23650.06
2022-08-29T05:02:30.243Z,-23654.16
2022-08-29T05:04:32.979Z,-23652.25
2022-08-29T05:06:35.672Z,-23651.00
2022-08-29T05:08:40.347Z,-23653.06
2022-08-29T05:10:47.579Z,-23657.63
2022-08-29T05:12:50.606Z,-23665.19
2022-08-29T05:14:54.626Z,-23669.28
2022-08-29T05:16:58.668Z,-23670.56
2022-08-29T05:19:01.306Z,-23669.94
2022-08-29T05:21:04.816Z,-23671.19
2022-08-29T05:23:07.541Z,-23671.19
2022-08-29T05:25:15.867Z,-23669.63
2022-08-29T05:27:22.977Z,-23673.72
2022-08-29T05:29:25.775Z,-23671.97
2022-08-29T05:31:28.599Z,-23669.78
2022-08-29T05:33:33.378Z,-23667.56
2022-08-29T05:35:37.544Z,-23672.91
2022-08-29T05:37:40.267Z,-23673.41
2022-08-29T05:39:44.319Z,-23680.66
2022-08-29T05:41:46.934Z,-23680.97
2022-08-29T05:43:49.834Z,-23688.22
2022-08-29T05:46:03.567Z,-23690.41
2022-08-29T05:48:09.403Z,-23691.69
2022-08-29T05:50:16.923Z,-23690.88
2022-08-29T05:52:21.468Z,-23692.63
2022-08-29T05:54:30.188Z,-23692.31
2022-08-29T05:56:33.199Z,-23697.34
2022-08-29T05:58:35.859Z,-23702.69
2022-08-29T06:00:39.659Z,-23705.84
2022-08-29T06:02:43.765Z,-23706.00
2022-08-29T06:04:46.844Z,-23703.34
2022-08-29T06:06:51.676Z,-23701.28
2022-08-29T06:08:55.547Z,-23701.75
2022-08-29T06:10:58.404Z,-23697.81
2022-08-29T06:13:01.240Z,-23693.56
2022-08-29T06:15:04.627Z,-23699.56
2022-08-29T06:17:09.298Z,-23705.06
2022-08-29T06:19:12.606Z,-23706.78
2022-08-29T06:21:15.819Z,-23707.91
2022-08-29T06:23:19.905Z,-23709.31
2022-08-29T06:25:39.542Z,-23711.50
2022-08-29T06:27:42.924Z,-23717.81
2022-08-29T06:29:45.656Z,-23725.06
2022-08-29T06:31:48.405Z,-23723.94
2022-08-29T06:33:52.788Z,-23732.59
2022-08-29T06:35:55.500Z,-23743.91
2022-08-29T06:37:58.221Z,-23732.75
2022-08-29T06:40:02.266Z,-23734.66
2022-08-29T06:42:05.398Z,-23748.94
2022-08-29T06:44:08.957Z,-23763.56
2022-08-29T06:46:21.933Z,-23753.38
2022-08-29T06:48:28.942Z,-23760.59
2022-08-29T06:50:32.324Z,-23750.84
2022-08-29T06:52:35.854Z,-23753.50
2022-08-29T06:54:38.643Z,-23750.06
2022-08-29T06:56:43.906Z,-23753.38
2022-08-29T06:58:47.610Z,-23761.38
2022-08-29T07:00:50.389Z,-23765.78
2022-08-29T07:02:53.690Z,-23790.13
2022-08-29T07:04:56.466Z,-23803.31
2022-08-29T07:06:59.143Z,-23807.53
2022-08-29T07:09:01.859Z,-23824.31
2022-08-29T07:11:04.601Z,-23822.13
2022-08-29T07:13:08.724Z,-23823.69
2022-08-29T07:15:12.191Z,-23819.47
2022-08-29T07:17:24.826Z,-23822.28
2022-08-29T07:19:28.781Z,-23846.28
2022-08-29T07:21:31.591Z,-23838.75
2022-08-29T07:23:34.370Z,-23850.03
2022-08-29T07:25:37.079Z,-23857.56
2022-08-29T07:27:39.777Z,-23848.47
2022-08-29T07:29:45.646Z,-23862.72
2022-08-29T07:31:51.574Z,-23883.53
2022-08-29T07:34:02.269Z,-23892.00
2022-08-29T07:36:06.626Z,-23873.84
2022-08-29T07:38:09.344Z,-23890.75
2022-08-29T07:40:18.101Z,-23903.09
2022-08-29T07:42:20.880Z,-23884.16
2022-08-29T07:44:23.689Z,-23867.88
2022-08-29T07:46:27.851Z,-23862.88
2022-08-29T07:48:30.617Z,-23868.03
2022-08-29T07:50:33.427Z,-23896.53
2022-08-29T07:52:36.673Z,-23905.13
2022-08-29T07:54:39.331Z,-23861.94
2022-08-29T07:56:42.441Z,-23831.53
2022-08-29T07:58:45.531Z,-23847.22
2022-08-29T08:00:48.196Z,-23878.84
2022-08-29T08:02:52.315Z,-23899.50
2022-08-29T08:04:55.043Z,-23862.56
2022-08-29T08:06:57.654Z,-23865.84
2022-08-29T08:09:00.454Z,-23887.00
2022-08-29T08:11:04.932Z,-23900.59
2022-08-29T08:13:07.769Z,-23929.50
2022-08-29T08:15:11.672Z,-23922.31
2022-08-29T08:17:14.359Z,-23958.72
2022-08-29T08:19:19.239Z,-23943.72
2022-08-29T08:21:22.373Z,-23896.38
2022-08-29T08:23:25.038Z,-23915.91
2022-08-29T08:25:27.846Z,-23912.47
2022-08-29T08:27:30.546Z,-23935.75
2022-08-29T08:29:33.378Z,-23948.56
2022-08-29T08:31:36.148Z,-23908.25
2022-08-29T08:33:40.534Z,-23898.72
2022-08-29T08:35:46.807Z,-23902.94
2022-08-29T08:37:49.878Z,-23881.19
2022-08-29T08:39:57.045Z,-23907.47
2022-08-29T08:42:07.028Z,-23897.94
2022-08-29T08:44:16.779Z,-23917.00
2022-08-29T08:46:27.909Z,-23920.75
2022-08-29T08:48:37.872Z,-23941.06
2022-08-29T08:50:54.316Z,-23961.38
2022-08-29T08:53:04.372Z,-23996.59
2022-08-29T08:55:28.749Z,-23997.84
2022-08-29T08:57:39.650Z,-24019.34
2022-08-29T08:59:45.376Z,-23993.34
2022-08-29T09:02:00.306Z,-23981.16
2022-08-29T09:04:30.547Z,-23980.06
2022-08-29T09:06:45.874Z,-24014.38
2022-08-29T09:08:55.680Z,-24007.50
2022-08-29T09:11:04.100Z,-24023.53
2022-08-29T09:13:21.422Z,-23978.06
2022-08-29T09:15:26.878Z,-24034.59
2022-08-29T09:17:37.041Z,-24032.41
2022-08-29T09:19:41.280Z,-24008.44
2022-08-29T09:21:49.879Z,-24035.84
2022-08-29T09:23:57.532Z,-24023.06
2022-08-29T09:26:00.341Z,-24025.25
2022-08-29T09:28:05.890Z,-24061.34
2022-08-29T09:30:12.316Z,-24042.38
2022-08-29T09:32:21.644Z,-24053.25
2022-08-29T09:34:57.138Z,-24080.75
2022-08-29T09:36:59.561Z,-23994.72
2022-08-29T09:39:16.181Z,-24081.06
2022-08-29T09:41:28.336Z,-24030.56
2022-08-29T09:43:48.209Z,-24034.59
2022-08-29T09:46:23.100Z,-24030.56
2022-08-29T09:48:25.892Z,-24044.09
2022-08-29T09:50:28.607Z,-24002.22
2022-08-29T09:52:33.232Z,-24000.97
2022-08-29T09:54:35.964Z,-24011.88
2022-08-29T09:56:48.174Z,-24018.09
2022-08-29T09:59:00.719Z,-24020.59
2022-08-29T10:01:09.652Z,-24050.47
2022-08-29T10:03:22.501Z,-24034.91
2022-08-29T10:05:36.108Z,-24082.63
2022-08-29T10:07:49.570Z,-24045.00
2022-08-29T10:10:00.242Z,-24052.16
2022-08-29T10:12:10.947Z,-24075.63
2022-08-29T10:14:20.082Z,-24071.13
2022-08-29T10:16:38.096Z,-24044.25
2022-08-29T10:18:48.051Z,-24086.97
2022-08-29T10:21:01.073Z,-24006.56
2022-08-29T10:23:11.729Z,-23988.34
2022-08-29T10:25:20.748Z,-24038.63
2022-08-29T10:27:33.057Z,-24060.72
2022-08-29T10:29:55.153Z,-24027.13
2022-08-29T10:32:10.257Z,-24066.63
2022-08-29T10:34:36.215Z,-24044.84
2022-08-29T10:36:41.064Z,-24036.63
2022-08-29T10:38:51.137Z,-23970.09
2022-08-29T10:40:58.486Z,-23978.22
2022-08-29T10:43:24.499Z,-23998.00
2022-08-29T10:45:36.143Z,-23997.38
2022-08-29T10:47:41.554Z,-23988.03
2022-08-29T10:49:59.774Z,-23988.34
2022-08-29T10:52:08.738Z,-23976.81
2022-08-29T10:54:23.226Z,-23989.13
2022-08-29T10:56:31.510Z,-23978.38
2022-08-29T10:58:44.989Z,-23975.09
2022-08-29T11:00:52.684Z,-23994.13
2022-08-29T11:03:05.792Z,-23972.91
2022-08-29T11:05:13.096Z,-23969.47
2022-08-29T11:07:21.478Z,-23961.38
2022-08-29T11:09:30.325Z,-23951.53
2022-08-29T11:11:36.339Z,-23948.09
2022-08-29T11:13:43.584Z,-23948.88
2022-08-29T11:15:57.587Z,-23944.81
2022-08-29T11:18:08.001Z,-23952.31
2022-08-29T11:20:14.455Z,-23956.06
2022-08-29T11:22:21.129Z,-23961.66
2022-08-29T11:24:31.667Z,-23978.84
2022-08-29T11:26:50.420Z,-23991.00
2022-08-29T11:28:59.290Z,-23983.50
2022-08-29T11:31:12.049Z,-23954.19
2022-08-29T11:33:26.796Z,-23964.47
2022-08-29T11:35:41.217Z,-23973.84
2022-08-29T11:38:17.911Z,-23967.13
2022-08-29T11:43:03.247Z,-23997.53
2022-08-29T11:45:23.813Z,-23997.53
2022-08-29T11:47:41.531Z,-23992.88
2022-08-29T11:49:50.031Z,-23992.88
2022-08-29T11:51:56.164Z,-23985.06
2022-08-29T11:54:39.133Z,-23986.00
2022-08-29T11:56:43.311Z,-23976.34
2022-08-29T11:58:48.712Z,-24003.16
2022-08-29T12:00:54.059Z,-23998.16
2022-08-29T12:02:56.870Z,-23997.38
2022-08-29T12:05:01.411Z,-23994.91
2022-08-29T12:07:05.060Z,-23985.84
2022-08-29T12:09:25.332Z,-23991.16
2022-08-29T12:12:13.553Z,-23979.78
2022-08-29T12:14:36.961Z,-24003.75
2022-08-29T12:16:51.154Z,-24015.59
2022-08-29T12:18:55.479Z,-24032.41
2022-08-29T12:20:58.694Z,-23997.53
2022-08-29T12:23:04.539Z,-23994.56
2022-08-29T12:25:34.831Z,-23996.75
2022-08-29T12:28:01.978Z,-23971.34
2022-08-29T12:30:10.436Z,-23981.63
2022-08-29T12:32:40.010Z,-23980.06
2022-08-29T12:35:00.310Z,-23972.28
2022-08-29T12:37:28.616Z,-23976.66
2022-08-29T12:40:00.221Z,-23969.31
2022-08-29T12:42:19.934Z,-23986.00
2022-08-29T12:44:28.586Z,-24005.31
2022-08-29T12:46:37.899Z,-24008.13
2022-08-29T12:48:57.548Z,-24015.44
2022-08-29T12:51:02.542Z,-23995.34
2022-08-29T12:53:07.629Z,-24011.25
2022-08-29T12:55:22.803Z,-24011.41
2022-08-29T12:57:35.932Z,-23998.31
2022-08-29T12:59:46.079Z,-24018.88
2022-08-29T13:01:54.344Z,-24027.44
2022-08-29T13:04:07.315Z,-24016.53
2022-08-29T13:06:14.937Z,-24021.38
2022-08-29T13:08:34.014Z,-24005.94
2022-08-29T13:10:38.144Z,-24003.16
2022-08-29T13:12:40.955Z,-24015.91
2022-08-29T13:14:52.493Z,-24012.19
2022-08-29T13:16:56.639Z,-24023.38
2022-08-29T13:19:10.488Z,-24018.56
2022-08-29T13:21:20.070Z,-24017.47
2022-08-29T13:23:29.002Z,-24019.03
2022-08-29T13:25:32.483Z,-24015.28
2022-08-29T13:27:35.268Z,-24031.50
2022-08-29T13:29:39.942Z,-24037.41
2022-08-29T13:31:42.847Z,-24013.13
2022-08-29T13:34:10.322Z,-24046.41
2022-08-29T13:36:38.057Z,-24061.50
2022-08-29T13:38:40.825Z,-24046.09
2022-08-29T13:40:46.261Z,-24026.50
2022-08-29T13:42:49.497Z,-24031.78
2022-08-29T13:45:08.957Z,-24041.13
2022-08-29T13:47:16.299Z,-24049.22
2022-08-29T13:49:22.657Z,-24022.91
2022-08-29T13:51:25.535Z,-24009.69
2022-08-29T13:53:28.360Z,-24017.63
2022-08-29T13:55:31.236Z,-24000.97
2022-08-29T13:57:34.764Z,-23992.25
2022-08-29T13:59:38.484Z,-24015.28
2022-08-29T14:04:34.188Z,-24001.13
2022-08-29T14:06:29.122Z,-23991.94
2022-08-29T14:08:32.584Z,-23994.25
2022-08-29T14:10:35.473Z,-24005.94
2022-08-29T14:12:38.309Z,-24009.69
2022-08-29T14:14:41.038Z,-24001.59
2022-08-29T14:16:43.757Z,-24002.53
2022-08-29T14:18:46.763Z,-24008.44
2022-08-29T14:20:49.477Z,-23990.69
2022-08-29T14:22:53.531Z,-23983.50
2022-08-29T14:24:56.323Z,-23989.28
2022-08-29T14:27:01.576Z,-23988.81
2022-08-29T14:29:05.045Z,-23977.28
2022-08-29T14:31:08.156Z,-23978.84
2022-08-29T14:33:10.954Z,-23981.16
2022-08-29T14:35:25.822Z,-23990.22
2022-08-29T14:37:30.056Z,-23990.38
2022-08-29T14:39:34.222Z,-23997.69
2022-08-29T14:41:36.947Z,-23999.25
2022-08-29T14:43:40.063Z,-23996.75
2022-08-29T14:45:42.935Z,-24008.75
2022-08-29T14:47:47.177Z,-24005.94
2022-08-29T14:49:51.355Z,-23996.75
2022-08-29T14:51:54.342Z,-24000.19
2022-08-29T14:53:57.304Z,-23997.22
2022-08-29T14:56:02.353Z,-24005.47
2022-08-29T14:58:05.740Z,-24007.19
2022-08-29T15:00:12.714Z,-24002.69
2022-08-29T15:02:15.933Z,-23994.13
2022-08-29T15:04:18.736Z,-24001.28
2022-08-29T15:06:24.702Z,-24005.94
2022-08-29T15:08:27.392Z,-24006.88
2022-08-29T15:10:31.630Z,-24001.75
2022-08-29T15:12:36.029Z,-23999.41
2022-08-29T15:14:38.792Z,-24000.03
2022-08-29T15:16:42.795Z,-24001.28
2022-08-29T15:21:08.209Z,-23996.91
2022-08-29T15:23:12.183Z,-23993.03
2022-08-29T15:25:16.809Z,-23991.63
2022-08-29T15:27:24.910Z,-23989.13
2022-08-29T15:29:35.097Z,-23983.19
2022-08-29T15:31:37.950Z,-23995.50
2022-08-29T15:33:41.218Z,-24001.91
2022-08-29T15:35:44.396Z,-23999.25
2022-08-29T15:37:47.442Z,-23999.41
2022-08-29T15:39:54.736Z,-23991.31
2022-08-29T15:41:59.695Z,-23994.72
2022-08-29T15:44:02.783Z,-23999.56
2022-08-29T15:46:08.152Z,-23995.50
2022-08-29T15:48:11.729Z,-23997.84
2022-08-29T15:50:15.343Z,-23996.91
2022-08-29T15:52:18.075Z,-23991.94
2022-08-29T15:54:21.210Z,-23990.69
2022-08-29T15:56:24.058Z,-23987.56
2022-08-29T15:58:28.367Z,-23985.06
2022-08-29T16:00:31.847Z,-23986.47
2022-08-29T16:02:36.040Z,-23981.31
2022-08-29T16:04:42.747Z,-23985.06
2022-08-29T16:06:45.793Z,-23985.69
2022-08-29T16:08:48.495Z,-23984.44
2022-08-29T16:10:58.174Z,-23977.59
2022-08-29T16:13:01.152Z,-23979.16
2022-08-29T16:15:09.615Z,-23971.66
2022-08-29T16:17:13.298Z,-23968.69
2022-08-29T16:19:18.746Z,-23966.38
2022-08-29T16:21:23.939Z,-23973.06
2022-08-29T16:23:26.723Z,-23973.06
2022-08-29T16:25:30.976Z,-23970.72
2022-08-29T16:27:34.020Z,-23972.59
2022-08-29T16:29:36.729Z,-23973.84
2022-08-29T16:31:39.511Z,-23972.91
2022-08-29T16:33:42.961Z,-23974.78
2022-08-29T16:35:47.407Z,-23972.91
2022-08-29T16:38:02.169Z,-23972.13
2022-08-29T16:40:07.951Z,-23975.09
2022-08-29T16:42:12.058Z,-23974.16
2022-08-29T16:44:14.896Z,-23975.41
2022-08-29T16:46:18.319Z,-23976.34
2022-08-29T16:48:21.287Z,-23976.03
2022-08-29T16:50:24.467Z,-23974.78
2022-08-29T16:52:28.721Z,-23972.13
2022-08-29T16:54:33.195Z,-23966.66
2022-08-29T16:56:36.189Z,-23971.34
2022-08-29T16:58:56.532Z,-23973.22
2022-08-29T17:00:59.327Z,-23971.66
2022-08-29T17:03:02.208Z,-23967.91
2022-08-29T17:05:05.583Z,-23968.84
2022-08-29T17:07:08.411Z,-23965.09
2022-08-29T17:09:11.363Z,-23964.47
2022-08-29T17:11:13.030Z,-23956.69
2022-08-29T17:13:14.986Z,-23952.94
2022-08-29T17:15:16.858Z,-23956.69
2022-08-29T17:17:19.707Z,-23956.69
2022-08-29T17:19:23.644Z,-23954.50
2022-08-29T17:21:27.014Z,-23951.38
2022-08-29T17:23:31.079Z,-23950.75
2022-08-29T17:25:35.585Z,-23953.25
2022-08-29T17:27:38.262Z,-23952.63
2022-08-29T17:29:43.093Z,-23947.47
2022-08-29T17:31:46.189Z,-23945.91
2022-08-29T17:33:49.334Z,-23947.31
2022-08-29T17:35:52.060Z,-23947.63
2022-08-29T17:37:54.938Z,-23944.50
2022-08-29T17:39:58.572Z,-23938.41
2022-08-29T17:42:04.917Z,-23942.31
2022-08-29T17:44:09.889Z,-23938.25
2022-08-29T17:46:12.668Z,-23930.75
2022-08-29T17:48:15.591Z,-23931.69
2022-08-29T17:50:18.579Z,-23926.09
2022-08-29T17:52:21.552Z,-23929.03
2022-08-29T17:54:25.630Z,-23928.56
2022-08-29T17:56:38.890Z,-23922.00
2022-08-29T17:58:49.279Z,-23920.44
2022-08-29T18:00:53.934Z,-23921.38
2022-08-29T18:02:56.861Z,-23919.19
2022-08-29T18:04:59.625Z,-23918.72
2022-08-29T18:07:03.047Z,-23909.19
2022-08-29T18:09:06.677Z,-23905.44
2022-08-29T18:11:12.476Z,-23899.81
2022-08-29T18:13:18.569Z,-23900.44
2022-08-29T18:15:25.390Z,-23898.56
2022-08-29T18:17:28.613Z,-23903.41
2022-08-29T18:19:31.324Z,-23904.19
2022-08-29T18:21:34.719Z,-23902.63
2022-08-29T18:23:38.113Z,-23900.13
2022-08-29T18:25:40.883Z,-23896.22
2022-08-29T18:27:43.988Z,-23897.31
2022-08-29T18:29:46.780Z,-23891.38
2022-08-29T18:31:50.843Z,-23890.59
2022-08-29T18:34:01.611Z,-23890.75
2022-08-29T18:36:07.181Z,-23891.06
2022-08-29T18:38:10.445Z,-23889.66
2022-08-29T18:40:13.609Z,-23890.91
2022-08-29T18:42:30.812Z,-23892.94
2022-08-29T18:44:41.149Z,-23891.69
2022-08-29T18:46:47.821Z,-23889.50
2022-08-29T18:48:52.752Z,-23889.66
2022-08-29T18:50:55.501Z,-23890.13
2022-08-29T18:52:58.228Z,-23888.56
2022-08-29T18:55:00.930Z,-23886.69
2022-08-29T18:57:03.805Z,-23885.91
2022-08-29T18:59:06.530Z,-23884.66
2022-08-29T19:01:13.758Z,-23877.91
2022-08-29T19:03:17.140Z,-23881.34
2022-08-29T19:05:22.044Z,-23875.41
2022-08-29T19:07:24.733Z,-23873.53
2022-08-29T19:09:27.504Z,-23873.22
2022-08-29T19:11:30.218Z,-23869.13
2022-08-29T19:13:33.150Z,-23864.75
2022-08-29T19:15:41.412Z,-23866.94
2022-08-29T19:17:44.658Z,-23866.63
2022-08-29T19:20:10.168Z,-23866.94
2022-08-29T19:22:14.646Z,-23868.22
2022-08-29T19:24:17.349Z,-23862.88
2022-08-29T19:26:22.679Z,-23864.28
2022-08-29T19:28:25.601Z,-23867.88
2022-08-29T19:30:28.466Z,-23868.50
2022-08-29T19:32:31.147Z,-23865.53
2022-08-29T19:34:34.043Z,-23862.09
2022-08-29T19:36:36.869Z,-23865.69
2022-08-29T19:38:42.363Z,-23864.75
2022-08-29T19:40:45.822Z,-23863.97
2022-08-29T19:42:49.377Z,-23861.78
2022-08-29T19:44:52.103Z,-23863.19
2022-08-29T19:46:55.224Z,-23860.38
2022-08-29T19:48:58.035Z,-23859.13
2022-08-29T19:51:00.787Z,-23858.34
2022-08-29T19:53:03.525Z,-23860.69
2022-08-29T19:55:11.009Z,-23861.00
2022-08-29T19:57:14.646Z,-23864.13
2022-08-29T19:59:18.115Z,-23862.25
2022-08-29T20:01:21.541Z,-23859.13
2022-08-29T20:03:24.237Z,-23861.31
2022-08-29T20:05:27.148Z,-23860.69
2022-08-29T20:07:30.657Z,-23858.34
2022-08-29T20:09:34.446Z,-23859.75
2022-08-29T20:11:43.443Z,-23855.69
2022-08-29T20:13:50.474Z,-23858.81
2022-08-29T20:15:54.092Z,-23859.59
2022-08-29T20:17:57.179Z,-23856.16
2022-08-29T20:19:59.937Z,-23853.00
2022-08-29T20:22:02.749Z,-23851.44
2022-08-29T20:24:07.360Z,-23852.06
2022-08-29T20:26:10.094Z,-23850.97
2022-08-29T20:28:15.634Z,-23852.69
2022-08-29T20:30:22.890Z,-23854.72
2022-08-29T20:32:25.837Z,-23854.72
2022-08-29T20:34:30.386Z,-23851.59
2022-08-29T20:36:50.674Z,-23853.47
2022-08-29T20:38:53.360Z,-23851.59
2022-08-29T20:40:56.068Z,-23848.16
2022-08-29T20:42:58.997Z,-23850.81
2022-08-29T20:45:03.061Z,-23849.56
2022-08-29T20:47:07.064Z,-23848.94
2022-08-29T20:49:10.517Z,-23851.28
2022-08-29T20:51:13.303Z,-23849.56
2022-08-29T20:53:31.928Z,-23848.31
2022-08-29T20:55:35.808Z,-23845.19
2022-08-29T20:57:39.348Z,-23849.41
2022-08-29T20:59:42.759Z,-23847.22
2022-08-29T21:01:47.920Z,-23844.25
2022-08-29T21:04:08.356Z,-23843.13
2022-08-29T21:06:11.943Z,-23844.09
2022-08-29T21:08:16.772Z,-23845.97
2022-08-29T21:10:19.533Z,-23845.19
2022-08-29T21:12:22.317Z,-23848.16
2022-08-29T21:14:30.369Z,-23847.84
2022-08-29T21:16:33.203Z,-23845.50
2022-08-29T21:18:37.391Z,-23845.97
2022-08-29T21:20:54.028Z,-23845.03
2022-08-29T21:22:59.556Z,-23845.19
2022-08-29T21:25:02.365Z,-23845.66
2022-08-29T21:27:05.402Z,-23843.91
2022-08-29T21:29:08.928Z,-23842.81
2022-08-29T21:31:15.378Z,-23842.50
2022-08-29T21:33:18.506Z,-23839.22
2022-08-29T21:35:24.334Z,-23845.50
2022-08-29T21:37:27.067Z,-23843.28
2022-08-29T21:39:30.388Z,-23843.75
2022-08-29T21:41:34.595Z,-23842.81
2022-08-29T21:43:37.410Z,-23844.56
2022-08-29T21:45:40.048Z,-23841.41
2022-08-29T21:47:42.783Z,-23840.63
2022-08-29T21:49:45.579Z,-23841.25
2022-08-29T21:51:50.058Z,-23840.00
2022-08-29T21:53:55.437Z,-23836.25
2022-08-29T21:55:58.150Z,-23836.25
2022-08-29T21:58:01.697Z,-23830.13
2022-08-29T22:00:07.538Z,-23830.13
2022-08-29T22:02:10.448Z,-23829.66
2022-08-29T22:04:18.877Z,-23828.72
2022-08-29T22:06:33.203Z,-23827.78
2022-08-29T22:08:37.725Z,-23825.75
2022-08-29T22:10:40.921Z,-23825.91
2022-08-29T22:12:43.732Z,-23826.06
2022-08-29T22:15:03.811Z,-23826.38
2022-08-29T22:17:06.647Z,-23825.91
2022-08-29T22:19:12.927Z,-23826.84
2022-08-29T22:21:16.456Z,-23827.47
2022-08-29T22:23:20.316Z,-23828.41
2022-08-29T22:25:25.042Z,-23829.03
2022-08-29T22:27:27.763Z,-23827.16
2022-08-29T22:29:30.424Z,-23828.56
2022-08-29T22:31:33.304Z,-23828.09
2022-08-29T22:33:36.118Z,-23826.84
2022-08-29T22:35:39.379Z,-23827.78
2022-08-29T22:37:42.059Z,-23826.53
2022-08-29T22:39:44.698Z,-23825.59
2022-08-29T22:41:48.811Z,-23825.28
2022-08-29T22:44:11.347Z,-23821.34
2022-08-29T22:46:18.016Z,-23822.13
2022-08-29T22:48:20.794Z,-23821.19
2022-08-29T22:50:25.223Z,-23819.00
2022-08-29T22:52:27.999Z,-23819.63
2022-08-29T22:54:36.644Z,-23820.09
2022-08-29T22:56:41.582Z,-23816.00
2022-08-29T22:58:45.647Z,-23817.13
2022-08-29T23:00:48.659Z,-23814.91
2022-08-29T23:02:51.861Z,-23813.97
2022-08-29T23:04:54.604Z,-23811.63
2022-08-29T23:06:57.432Z,-23812.88
2022-08-29T23:09:00.404Z,-23809.59
2022-08-29T23:11:03.311Z,-23808.97
2022-08-29T23:13:05.974Z,-23806.44
2022-08-29T23:15:12.939Z,-23802.06
2022-08-29T23:17:17.143Z,-23799.53
2022-08-29T23:19:19.906Z,-23798.91
2022-08-29T23:21:23.764Z,-23799.53
2022-08-29T23:23:26.427Z,-23798.44
2022-08-29T23:25:29.253Z,-23795.94
2022-08-29T23:27:33.397Z,-23793.56
2022-08-29T23:29:41.992Z,-23791.84
2022-08-29T23:31:46.382Z,-23795.47
2022-08-29T23:33:49.486Z,-23793.56
2022-08-29T23:35:52.332Z,-23792.00
2022-08-29T23:37:55.087Z,-23794.03
2022-08-29T23:39:57.841Z,-23789.19
2022-08-29T23:42:00.585Z,-23790.13
2022-08-29T23:44:03.678Z,-23788.56
2022-08-29T23:46:07.342Z,-23786.50
2022-08-29T23:48:11.443Z,-23785.41
2022-08-29T23:50:14.917Z,-23785.09
2022-08-29T23:52:17.882Z,-23787.91
2022-08-29T23:54:20.560Z,-23783.22
2022-08-29T23:56:23.411Z,-23782.75
2022-08-29T23:58:26.114Z,-23780.38
